»·PEaware :: N75232 KMHV-KSBD

N75232 :: KMHV-KSBD

FLIGHT INFORMATION

Flight Status: Arrived
Operator: Privately registered:
United States
More flights under this callsign
Pilot: Daniel B. (28719)
Aircraft: CESSNA 172 SKYHAWK
(C172)
More flights by this aircraft type
Origin: KMHV Mojave
United States
Destination: KSBD San Bernardino Intl
United States
More flights between these airports :: More routes between these airports
Route: +
File this flight plan on PilotEdge
Remarks:
Altitude:
(Current/Filed)
0ft
Speed:
(Current/Filed)
0kts
Departed: 15-Apr-20 04:24 PM
Arrived: 15-Apr-20 05:06 PM
Distance/Time
Traveled:
73nm/0:42
Distance/Time
To Go:
Arrived

Flight Plot

Page will automatically refresh every two minutes.

Flight plan parsing failed; only flown route is shown


Map Options




Map Legend


Flown Route
Filed Route
Departure Airport
Arrival Airport
Navaid (VOR, NDB)
Fix

Horizontal Profiles

Position Reports

Time Latitude Longitude Heading Altitude Ground
Speed
15-Apr-20 16:10 35.057242 -118.158045 269 2764ft 0kts
15-Apr-20 16:11 35.057242 -118.158045 269 2764ft 0kts
15-Apr-20 16:12 35.057242 -118.158046 270 2764ft 0kts
15-Apr-20 16:13 35.057242 -118.158046 270 2764ft 0kts
15-Apr-20 16:14 35.057242 -118.158046 270 2764ft 0kts
15-Apr-20 16:15 35.057606 -118.157966 14 2764ft 0kts
15-Apr-20 16:16 35.057594 -118.151477 89 2750ft 21kts
15-Apr-20 16:16 35.055564 -118.146345 135 2734ft 27kts
15-Apr-20 16:18 35.048091 -118.137304 135 2698ft 25kts
15-Apr-20 16:19 35.044325 -118.131713 42 2680ft 0kts
15-Apr-20 16:19 35.044325 -118.131713 42 2680ft 0kts
15-Apr-20 16:20 35.044326 -118.131712 41 2680ft 0kts
15-Apr-20 16:22 35.044326 -118.131713 41 2680ft 0kts
15-Apr-20 16:22 35.045079 -118.131439 337 2680ft 14kts
15-Apr-20 16:23 35.056421 -118.144444 308 3198ft 70kts
15-Apr-20 16:24 35.053038 -118.159371 160 3951ft 104kts
15-Apr-20 16:26 35.026213 -118.132038 143 4796ft 104kts
15-Apr-20 16:26 35.008499 -118.111623 140 5372ft 104kts
15-Apr-20 16:27 34.987343 -118.087316 142 5998ft 103kts
15-Apr-20 16:28 34.965341 -118.064335 141 6577ft 104kts
15-Apr-20 16:29 34.943468 -118.040968 143 7115ft 104kts
15-Apr-20 16:30 34.919676 -118.020969 147 7615ft 104kts
15-Apr-20 16:31 34.896319 -117.999299 143 8082ft 106kts
15-Apr-20 16:32 34.873217 -117.976522 145 8508ft 107kts
15-Apr-20 16:33 34.850359 -117.954150 141 9007ft 101kts
15-Apr-20 16:34 34.829766 -117.932881 134 9486ft 105kts
15-Apr-20 16:35 34.803534 -117.907506 153 9445ft 125kts
15-Apr-20 16:36 34.774044 -117.886671 146 9467ft 124kts
15-Apr-20 16:37 34.746648 -117.860571 142 9472ft 126kts
15-Apr-20 16:38 34.719131 -117.834205 141 9462ft 126kts
15-Apr-20 16:39 34.691798 -117.807907 144 9467ft 125kts
15-Apr-20 16:40 34.664280 -117.782139 141 9477ft 125kts
15-Apr-20 16:41 34.637536 -117.755126 139 9509ft 124kts
15-Apr-20 16:42 34.610660 -117.728538 140 9535ft 124kts
15-Apr-20 16:43 34.583073 -117.702635 142 9547ft 125kts
15-Apr-20 16:44 34.555452 -117.676953 140 9561ft 125kts
15-Apr-20 16:45 34.527623 -117.651374 142 9546ft 125kts
15-Apr-20 16:46 34.500280 -117.625523 138 9537ft 124kts
15-Apr-20 16:47 34.473172 -117.599566 141 9531ft 123kts
15-Apr-20 16:48 34.445198 -117.575177 137 9520ft 124kts
15-Apr-20 16:49 34.419939 -117.547073 138 9533ft 123kts
15-Apr-20 16:50 34.393282 -117.520934 138 9533ft 124kts
15-Apr-20 16:51 34.367187 -117.496388 141 9086ft 111kts
15-Apr-20 16:52 34.341761 -117.476114 150 8474ft 108kts
15-Apr-20 16:53 34.316202 -117.457287 147 7890ft 107kts
15-Apr-20 16:54 34.292602 -117.435530 146 7342ft 106kts
15-Apr-20 16:55 34.267889 -117.415648 151 6701ft 113kts
15-Apr-20 16:56 34.241402 -117.393230 146 5668ft 122kts
15-Apr-20 16:57 34.216696 -117.372183 143 4584ft 101kts
15-Apr-20 16:58 34.195132 -117.351420 141 3529ft 98kts
15-Apr-20 16:59 34.174104 -117.333665 152 2771ft 94kts
15-Apr-20 17:00 34.146474 -117.319438 163 2259ft 111kts
15-Apr-20 17:01 34.118045 -117.307595 162 1925ft 102kts
15-Apr-20 17:02 34.093679 -117.295118 142 1891ft 87kts
15-Apr-20 17:03 34.084374 -117.271959 77 1615ft 80kts
15-Apr-20 17:04 34.091702 -117.247071 66 1097ft 62kts
15-Apr-20 17:05 34.094143 -117.242045 358 1099ft 0kts
15-Apr-20 17:06 34.094943 -117.242001 31 1099ft 11kts
15-Apr-20 17:07 34.096745 -117.236204 72 1115ft 18kts
15-Apr-20 17:08 34.098765 -117.229373 70 1134ft 21kts
15-Apr-20 17:09 34.100650 -117.225660 70 1143ft 12kts
15-Apr-20 17:10 34.101150 -117.224983 353 1146ft 0kts
15-Apr-20 17:11 34.101150 -117.224983 353 1146ft 0kts
15-Apr-20 17:12 34.101150 -117.224983 353 1146ft 0kts
15-Apr-20 17:13 34.101150 -117.224983 353 1146ft 0kts
15-Apr-20 17:14 34.101150 -117.224983 353 1146ft 0kts
15-Apr-20 17:15 34.101150 -117.224983 353 1146ft 0kts
15-Apr-20 17:16 34.101150 -117.224983 353 1146ft 0kts
15-Apr-20 17:17 34.101150 -117.224983 353 1146ft 0kts
15-Apr-20 17:18 34.101150 -117.224983 353 1146ft 0kts
15-Apr-20 17:19 34.101150 -117.224983 353 1146ft 0kts

Navigation Log

Ident Type
Flight plan parsing failed, navigation log unavailable